createdAt,value
2023-10-03T00:00:35.631Z,73.72
2023-10-03T00:03:37.798Z,73.60
2023-10-03T00:06:40.235Z,73.53
2023-10-03T00:09:42.851Z,73.35
2023-10-03T00:12:49.233Z,73.36
2023-10-03T00:15:51.255Z,73.24
2023-10-03T00:18:53.405Z,73.20
2023-10-03T00:21:55.217Z,73.13
2023-10-03T00:24:57.106Z,72.91
2023-10-03T00:28:02.344Z,73.03
2023-10-03T00:31:10.683Z,73.08
2023-10-03T00:34:14.156Z,73.18
2023-10-03T00:37:16.594Z,73.30
2023-10-03T00:40:22.921Z,73.10
2023-10-03T00:43:25.972Z,73.19
2023-10-03T00:46:31.330Z,72.98
2023-10-03T00:49:33.313Z,72.78
2023-10-03T00:52:36.068Z,72.56
2023-10-03T00:55:39.580Z,72.71
2023-10-03T00:58:42.665Z,72.46
2023-10-03T01:01:47.718Z,72.39
2023-10-03T01:04:50.854Z,72.39
2023-10-03T01:07:52.972Z,72.41
2023-10-03T01:10:56.718Z,72.51
2023-10-03T01:14:00.900Z,72.45
2023-10-03T01:17:04.675Z,72.44
2023-10-03T01:20:18.704Z,72.42
2023-10-03T01:23:22.112Z,72.71
2023-10-03T01:26:26.190Z,72.45
2023-10-03T01:29:28.242Z,72.53
2023-10-03T01:32:33.349Z,72.63
2023-10-03T01:35:35.717Z,72.81
2023-10-03T01:38:37.676Z,72.95
2023-10-03T01:41:39.731Z,72.76
2023-10-03T01:44:41.889Z,72.75
2023-10-03T01:47:49.118Z,72.44
2023-10-03T01:50:52.052Z,72.61
2023-10-03T01:53:57.371Z,72.71
2023-10-03T01:57:01.668Z,72.65
2023-10-03T02:00:07.366Z,72.49
2023-10-03T02:03:14.977Z,72.75
2023-10-03T02:06:17.752Z,72.82
2023-10-03T02:09:22.424Z,72.88
2023-10-03T02:12:24.563Z,72.74
2023-10-03T02:15:26.692Z,72.51
2023-10-03T02:18:28.675Z,72.59
2023-10-03T02:21:30.565Z,72.48
2023-10-03T02:24:33.661Z,72.50
2023-10-03T02:27:35.548Z,72.42
2023-10-03T02:35:40.588Z,72.22
2023-10-03T02:38:42.971Z,72.25
2023-10-03T02:41:45.130Z,72.32
2023-10-03T02:44:48.023Z,72.24
2023-10-03T02:47:57.575Z,72.21
2023-10-03T02:51:03.380Z,72.26
2023-10-03T02:54:05.468Z,72.52
2023-10-03T02:57:07.302Z,72.26
2023-10-03T03:00:16.460Z,72.03
2023-10-03T03:03:19.960Z,72.23
2023-10-03T03:06:24.045Z,71.87
2023-10-03T03:09:30.747Z,71.81
2023-10-03T03:12:36.707Z,71.49
2023-10-03T03:15:38.718Z,71.22
2023-10-03T03:18:44.847Z,70.77
2023-10-03T03:21:47.643Z,70.72
2023-10-03T03:24:53.023Z,70.34
2023-10-03T03:27:58.937Z,70.02
2023-10-03T03:31:02.756Z,69.73
2023-10-03T03:34:04.737Z,69.42
2023-10-03T03:37:25.035Z,69.25
2023-10-03T03:40:35.131Z,69.02
2023-10-03T03:43:37.675Z,68.68
2023-10-03T03:46:41.923Z,68.48
2023-10-03T03:49:44.801Z,68.51
2023-10-03T03:52:46.761Z,68.40
2023-10-03T03:55:50.784Z,68.11
2023-10-03T03:58:52.845Z,68.24
2023-10-03T04:01:56.588Z,68.15
2023-10-03T04:04:58.546Z,67.76
2023-10-03T04:08:00.811Z,68.02
2023-10-03T04:11:08.470Z,67.97
2023-10-03T04:14:10.346Z,67.92
2023-10-03T04:17:16.897Z,67.81
2023-10-03T04:20:21.634Z,67.72
2023-10-03T04:23:23.497Z,67.85
2023-10-03T04:26:29.166Z,67.81
2023-10-03T04:29:31.472Z,67.89
2023-10-03T04:32:33.698Z,67.74
2023-10-03T04:35:36.702Z,67.85
2023-10-03T04:38:38.785Z,67.73
2023-10-03T04:41:45.147Z,67.48
2023-10-03T04:44:47.478Z,67.63
2023-10-03T04:47:50.090Z,67.57
2023-10-03T04:50:52.342Z,67.52
2023-10-03T04:53:54.436Z,67.49
2023-10-03T04:56:56.429Z,67.31
2023-10-03T04:59:58.488Z,67.30
2023-10-03T05:03:00.570Z,67.26
2023-10-03T05:06:03.634Z,67.30
2023-10-03T05:09:06.292Z,67.03
2023-10-03T05:12:08.335Z,67.21
2023-10-03T05:15:10.498Z,67.13
2023-10-03T05:18:13.151Z,67.18
2023-10-03T05:21:15.124Z,67.16
2023-10-03T05:24:17.753Z,67.09
2023-10-03T05:27:19.850Z,66.98
2023-10-03T05:30:22.541Z,66.92
2023-10-03T05:33:24.425Z,66.78
2023-10-03T05:36:26.356Z,66.55
2023-10-03T05:39:28.297Z,66.76
2023-10-03T05:42:30.144Z,66.30
2023-10-03T05:45:32.124Z,66.30
2023-10-03T05:48:36.078Z,66.48
2023-10-03T05:51:37.979Z,66.08
2023-10-03T05:54:39.841Z,66.20
2023-10-03T05:57:44.245Z,65.81
2023-10-03T06:00:46.330Z,65.91
2023-10-03T06:03:48.521Z,65.89
2023-10-03T06:06:51.162Z,65.83
2023-10-03T06:09:55.069Z,65.88
2023-10-03T06:12:56.944Z,65.41
2023-10-03T06:16:01.799Z,65.38
2023-10-03T06:19:05.034Z,65.19
2023-10-03T06:22:09.585Z,65.05
2023-10-03T06:25:12.233Z,64.79
2023-10-03T06:28:17.585Z,64.49
2023-10-03T06:31:19.685Z,64.61
2023-10-03T06:34:21.834Z,64.34
2023-10-03T06:37:25.384Z,64.20
2023-10-03T06:40:28.704Z,63.98
2023-10-03T06:43:30.510Z,63.75
2023-10-03T06:46:32.531Z,63.53
2023-10-03T06:49:34.464Z,63.76
2023-10-03T06:52:36.622Z,63.70
2023-10-03T06:55:38.484Z,63.50
2023-10-03T06:58:40.404Z,63.13
2023-10-03T07:01:42.462Z,62.89
2023-10-03T07:04:46.181Z,63.00
2023-10-03T07:07:48.993Z,62.84
2023-10-03T07:10:51.634Z,62.92
2023-10-03T07:13:53.716Z,62.48
2023-10-03T07:16:56.441Z,62.52
2023-10-03T07:19:59.648Z,62.20
2023-10-03T07:23:01.728Z,62.14
2023-10-03T07:26:04.581Z,61.86
2023-10-03T07:29:07.390Z,61.63
2023-10-03T07:32:13.972Z,61.52
2023-10-03T07:35:18.351Z,61.44
2023-10-03T07:38:20.177Z,61.47
2023-10-03T07:41:23.213Z,61.41
2023-10-03T07:44:27.290Z,61.45
2023-10-03T07:47:29.551Z,61.21
2023-10-03T07:50:32.348Z,60.94
2023-10-03T07:53:37.829Z,60.97
2023-10-03T07:56:43.822Z,60.48
2023-10-03T07:59:45.816Z,60.30
2023-10-03T08:02:51.226Z,60.41
2023-10-03T08:05:58.399Z,59.87
2023-10-03T08:09:01.258Z,59.90
2023-10-03T08:12:13.275Z,59.83
2023-10-03T08:15:18.803Z,59.62
2023-10-03T08:18:20.918Z,59.51
2023-10-03T08:21:23.018Z,59.69
2023-10-03T08:24:26.694Z,59.04
2023-10-03T08:27:31.625Z,58.80
2023-10-03T08:30:36.617Z,58.64
2023-10-03T08:33:38.781Z,58.41
2023-10-03T08:36:40.733Z,58.35
2023-10-03T08:39:42.961Z,58.60
2023-10-03T08:42:45.540Z,58.06
2023-10-03T08:45:54.268Z,58.02
2023-10-03T08:49:02.448Z,57.61
2023-10-03T08:52:07.393Z,57.56
2023-10-03T08:55:16.000Z,56.98
2023-10-03T08:58:27.500Z,56.87
2023-10-03T09:01:34.848Z,56.67
2023-10-03T09:04:40.657Z,56.62
2023-10-03T09:07:45.804Z,56.15
2023-10-03T09:10:54.384Z,55.76
2023-10-03T09:14:01.469Z,55.80
2023-10-03T09:17:05.195Z,55.62
2023-10-03T09:20:10.194Z,55.24
2023-10-03T09:23:16.252Z,55.00
2023-10-03T09:26:20.796Z,53.75
2023-10-03T09:29:33.248Z,53.13
2023-10-03T09:32:41.104Z,53.09
2023-10-03T09:36:04.011Z,52.88
2023-10-03T09:39:08.746Z,52.52
2023-10-03T09:42:17.111Z,52.30
2023-10-03T09:45:26.084Z,52.08
2023-10-03T09:48:28.550Z,51.90
2023-10-03T09:51:52.798Z,51.60
2023-10-03T09:54:55.840Z,51.69
2023-10-03T09:58:01.307Z,51.45
2023-10-03T10:01:04.304Z,50.92
2023-10-03T10:04:11.348Z,50.79
2023-10-03T10:07:51.933Z,50.62
2023-10-03T10:11:10.791Z,50.68
2023-10-03T10:14:13.883Z,50.53
2023-10-03T10:17:15.955Z,50.11
2023-10-03T10:20:19.169Z,50.19
2023-10-03T10:23:21.921Z,49.98
2023-10-03T10:26:33.342Z,50.18
2023-10-03T10:29:59.954Z,49.65
2023-10-03T10:33:17.852Z,49.83
2023-10-03T10:36:20.535Z,49.55
2023-10-03T10:39:25.428Z,49.56
2023-10-03T10:42:28.139Z,49.46
2023-10-03T10:45:39.986Z,48.67
2023-10-03T10:48:42.855Z,48.36
2023-10-03T10:51:55.794Z,47.85
2023-10-03T10:54:58.483Z,47.40
2023-10-03T10:58:14.372Z,47.14
2023-10-03T11:01:18.102Z,46.59
2023-10-03T11:04:24.909Z,46.66
2023-10-03T11:07:28.373Z,46.41
2023-10-03T11:10:35.701Z,46.54
2023-10-03T11:13:59.823Z,46.47
2023-10-03T11:17:06.002Z,46.63
2023-10-03T11:20:10.230Z,46.76
2023-10-03T11:23:19.566Z,46.00
2023-10-03T11:26:21.450Z,46.14
2023-10-03T11:29:41.985Z,45.45
2023-10-03T11:32:44.691Z,45.37
2023-10-03T11:35:53.897Z,44.84
2023-10-03T11:38:57.523Z,44.89
2023-10-03T11:42:02.110Z,45.09
2023-10-03T11:45:04.558Z,45.05
2023-10-03T11:48:24.136Z,44.70
2023-10-03T11:51:27.139Z,44.52
2023-10-03T11:54:29.073Z,44.60
2023-10-03T11:57:32.045Z,44.50
2023-10-03T12:00:35.050Z,44.54
2023-10-03T12:03:39.304Z,44.09
2023-10-03T12:06:42.988Z,44.13
2023-10-03T12:09:46.670Z,43.89
2023-10-03T12:12:48.574Z,43.87
2023-10-03T12:15:51.202Z,43.94
2023-10-03T12:18:53.216Z,43.87
2023-10-03T12:21:55.556Z,44.10
2023-10-03T12:24:58.297Z,44.06
2023-10-03T12:28:00.404Z,44.08
2023-10-03T12:31:02.271Z,44.06
2023-10-03T12:34:04.113Z,44.08
2023-10-03T12:37:12.728Z,43.92
2023-10-03T12:40:19.741Z,43.90
2023-10-03T12:43:22.874Z,43.96
2023-10-03T12:46:24.820Z,43.83
2023-10-03T12:49:27.400Z,43.80
2023-10-03T12:52:32.271Z,44.07
2023-10-03T12:55:35.245Z,44.02
2023-10-03T12:58:39.198Z,43.92
2023-10-03T13:01:41.301Z,44.00
2023-10-03T13:04:43.344Z,43.75
2023-10-03T13:07:49.751Z,44.00
2023-10-03T13:10:51.883Z,44.42
2023-10-03T13:13:53.762Z,44.33
2023-10-03T13:17:00.713Z,44.22
2023-10-03T13:20:06.397Z,44.29
2023-10-03T13:23:08.492Z,44.61
2023-10-03T13:26:12.039Z,44.40
2023-10-03T13:29:13.872Z,44.45
2023-10-03T13:32:17.434Z,44.29
2023-10-03T13:35:22.189Z,44.30
2023-10-03T13:38:24.639Z,44.42
2023-10-03T13:41:29.070Z,44.51
2023-10-03T13:44:30.973Z,44.80
2023-10-03T13:47:33.204Z,44.64
2023-10-03T13:50:36.946Z,44.70
2023-10-03T13:53:39.612Z,44.86
2023-10-03T13:56:41.689Z,44.88
2023-10-03T13:59:47.173Z,44.67
2023-10-03T14:02:52.037Z,44.89
2023-10-03T14:05:55.451Z,44.66
2023-10-03T14:08:58.224Z,45.08
2023-10-03T14:12:06.612Z,45.27
2023-10-03T14:15:13.125Z,45.13
2023-10-03T14:18:15.098Z,45.65
2023-10-03T14:21:18.971Z,45.47
2023-10-03T14:24:23.534Z,45.45
2023-10-03T14:27:25.379Z,45.57
2023-10-03T14:30:27.241Z,45.75
2023-10-03T14:33:32.986Z,45.87
2023-10-03T14:36:35.027Z,45.46
2023-10-03T14:39:36.889Z,45.85
2023-10-03T14:42:39.493Z,45.94
2023-10-03T14:45:41.683Z,45.82
2023-10-03T14:48:46.543Z,46.09
2023-10-03T14:51:49.428Z,46.12
2023-10-03T14:54:52.459Z,46.40
2023-10-03T14:57:55.338Z,46.55
2023-10-03T15:01:06.271Z,46.99
2023-10-03T15:04:11.078Z,46.95
2023-10-03T15:07:13.209Z,46.91
2023-10-03T15:10:15.791Z,47.28
2023-10-03T15:13:17.831Z,47.29
2023-10-03T15:16:19.918Z,47.60
2023-10-03T15:19:21.901Z,47.76
2023-10-03T15:22:23.911Z,48.14
2023-10-03T15:25:28.337Z,48.10
2023-10-03T15:28:33.327Z,48.34
2023-10-03T15:31:36.586Z,48.71
2023-10-03T15:34:39.696Z,48.81
2023-10-03T15:37:41.672Z,49.03
2023-10-03T15:40:46.185Z,48.99
2023-10-03T15:43:48.108Z,49.34
2023-10-03T15:46:51.142Z,49.16
2023-10-03T15:49:53.120Z,49.52
2023-10-03T15:52:55.429Z,50.16
2023-10-03T15:55:59.720Z,50.13
2023-10-03T15:59:02.795Z,50.16
2023-10-03T16:02:05.723Z,50.63
2023-10-03T16:05:08.543Z,51.13
2023-10-03T16:08:11.367Z,51.42
2023-10-03T16:11:13.992Z,51.79
2023-10-03T16:14:17.972Z,52.20
2023-10-03T16:17:20.098Z,52.27
2023-10-03T16:20:22.899Z,52.25
2023-10-03T16:23:24.809Z,52.63
2023-10-03T16:26:27.729Z,53.10
2023-10-03T16:29:31.053Z,53.18
2023-10-03T16:32:35.289Z,53.21
2023-10-03T16:35:38.210Z,53.39
2023-10-03T16:41:43.400Z,53.98
2023-10-03T16:44:46.916Z,54.03
2023-10-03T16:47:51.053Z,54.21
2023-10-03T16:50:53.002Z,54.41
2023-10-03T16:53:54.900Z,54.49
2023-10-03T16:56:58.168Z,54.63
2023-10-03T17:00:00.868Z,54.75
2023-10-03T17:03:02.901Z,54.58
2023-10-03T17:06:05.119Z,54.63
2023-10-03T17:09:09.565Z,55.14
2023-10-03T17:12:12.466Z,55.11
2023-10-03T17:15:16.582Z,55.07
2023-10-03T17:18:18.653Z,55.12
2023-10-03T17:21:21.989Z,55.09
2023-10-03T17:24:25.920Z,55.31
2023-10-03T17:27:27.844Z,55.71
2023-10-03T17:30:29.697Z,55.39
2023-10-03T17:33:31.722Z,55.24
2023-10-03T17:36:33.629Z,55.49
2023-10-03T17:39:35.817Z,55.41
2023-10-03T17:42:37.607Z,55.73
2023-10-03T17:45:43.700Z,55.58
2023-10-03T17:48:45.565Z,55.60
2023-10-03T17:51:48.985Z,55.74
2023-10-03T17:54:50.844Z,55.73
2023-10-03T17:57:52.863Z,55.78
2023-10-03T18:00:54.866Z,55.80
2023-10-03T18:03:58.068Z,55.89
2023-10-03T18:07:00.197Z,55.90
2023-10-03T18:10:02.159Z,56.01
2023-10-03T18:13:04.219Z,56.21
2023-10-03T18:16:06.906Z,56.70
2023-10-03T18:19:08.906Z,56.57
2023-10-03T18:22:11.449Z,56.51
2023-10-03T18:25:15.215Z,56.72
2023-10-03T18:28:17.170Z,56.80
2023-10-03T18:31:20.722Z,57.19
2023-10-03T18:34:22.653Z,57.52
2023-10-03T18:37:24.544Z,57.76
2023-10-03T18:40:27.059Z,57.70
2023-10-03T18:43:28.960Z,57.42
2023-10-03T18:46:30.994Z,57.17
2023-10-03T18:49:33.023Z,57.48
2023-10-03T18:52:38.378Z,57.84
2023-10-03T18:55:40.678Z,58.00
2023-10-03T18:58:42.597Z,58.13
2023-10-03T19:01:49.526Z,57.90
2023-10-03T19:04:52.098Z,58.09
2023-10-03T19:07:55.677Z,58.03
2023-10-03T19:10:57.649Z,58.06
2023-10-03T19:13:59.651Z,58.15
2023-10-03T19:17:01.589Z,58.30
2023-10-03T19:20:05.485Z,58.02
2023-10-03T19:23:07.340Z,58.08
2023-10-03T19:26:10.497Z,58.38
2023-10-03T19:29:12.494Z,58.27
2023-10-03T19:32:16.536Z,57.96
2023-10-03T19:35:20.304Z,58.22
2023-10-03T19:38:22.154Z,58.37
2023-10-03T19:41:23.985Z,58.29
2023-10-03T19:44:29.377Z,58.34
2023-10-03T19:47:31.250Z,58.60
2023-10-03T19:50:34.772Z,58.79
2023-10-03T19:53:36.697Z,58.85
2023-10-03T19:56:38.624Z,58.99
2023-10-03T19:59:42.649Z,59.00
2023-10-03T20:02:45.890Z,59.26
2023-10-03T20:05:48.086Z,59.33
2023-10-03T20:08:50.538Z,59.65
2023-10-03T20:11:54.114Z,60.11
2023-10-03T20:14:56.068Z,60.58
2023-10-03T20:17:58.419Z,60.59
2023-10-03T20:21:00.995Z,60.54
2023-10-03T20:24:02.979Z,60.35
2023-10-03T20:27:05.281Z,60.32
2023-10-03T20:30:07.927Z,60.42
2023-10-03T20:33:09.941Z,60.77
2023-10-03T20:36:15.488Z,60.45
2023-10-03T20:39:18.171Z,61.51
2023-10-03T20:42:20.117Z,61.23
2023-10-03T20:45:22.232Z,61.13
2023-10-03T20:48:24.440Z,61.26
2023-10-03T20:51:26.361Z,61.12
2023-10-03T20:54:28.344Z,61.45
2023-10-03T20:57:30.264Z,61.28
2023-10-03T21:00:33.088Z,61.35
2023-10-03T21:03:35.012Z,61.72
2023-10-03T21:06:38.305Z,61.48
2023-10-03T21:09:40.423Z,61.56
2023-10-03T21:12:42.408Z,61.73
2023-10-03T21:15:44.382Z,61.68
2023-10-03T21:18:46.332Z,61.64
2023-10-03T21:21:48.656Z,61.46
2023-10-03T21:24:50.630Z,61.56
2023-10-03T21:27:52.495Z,61.26
2023-10-03T21:30:56.130Z,61.15
2023-10-03T21:33:59.320Z,60.79
2023-10-03T21:37:01.437Z,60.85
2023-10-03T21:40:04.067Z,60.65
2023-10-03T21:43:06.071Z,60.63
2023-10-03T21:46:09.766Z,60.71
2023-10-03T21:49:11.721Z,60.63
2023-10-03T21:52:13.915Z,60.89
2023-10-03T21:55:15.832Z,60.82
2023-10-03T21:58:17.723Z,60.88
2023-10-03T22:01:19.852Z,60.51
2023-10-03T22:04:24.701Z,60.56
2023-10-03T22:07:26.561Z,60.83
2023-10-03T22:10:29.078Z,60.66
2023-10-03T22:13:32.477Z,60.77
2023-10-03T22:16:35.016Z,60.68
2023-10-03T22:19:36.867Z,60.79
2023-10-03T22:22:39.525Z,60.57
2023-10-03T22:25:41.398Z,60.79
2023-10-03T22:28:44.403Z,61.04
2023-10-03T22:31:46.407Z,61.02
2023-10-03T22:34:48.304Z,61.22
2023-10-03T22:38:02.106Z,61.31
2023-10-03T22:41:09.356Z,61.35
2023-10-03T22:44:12.441Z,61.15
2023-10-03T22:47:14.549Z,61.40
2023-10-03T22:50:16.716Z,61.47
2023-10-03T22:53:18.622Z,61.26
2023-10-03T22:56:26.160Z,61.36
2023-10-03T22:59:28.356Z,61.20
2023-10-03T23:02:32.357Z,61.11
2023-10-03T23:05:34.633Z,61.07
2023-10-03T23:08:36.459Z,61.26
2023-10-03T23:11:38.322Z,61.19
2023-10-03T23:14:41.555Z,61.07
2023-10-03T23:17:43.600Z,61.09
2023-10-03T23:20:47.500Z,61.36
2023-10-03T23:23:49.429Z,61.23
2023-10-03T23:26:51.517Z,61.18
2023-10-03T23:29:53.370Z,61.02
2023-10-03T23:32:55.706Z,61.08
2023-10-03T23:35:57.640Z,61.50
2023-10-03T23:39:00.492Z,61.54
2023-10-03T23:42:02.383Z,61.74
2023-10-03T23:45:05.045Z,61.68
2023-10-03T23:48:07.319Z,61.83
2023-10-03T23:51:12.814Z,61.98
2023-10-03T23:54:18.044Z,62.08
2023-10-03T23:57:20.378Z,62.21
